createdAt,value
2023-03-25T00:02:58.300Z,11.76
2023-03-25T00:08:00.092Z,11.74
2023-03-25T00:13:05.804Z,11.72
2023-03-25T00:18:07.668Z,11.69
2023-03-25T00:23:09.709Z,11.68
2023-03-25T00:28:12.420Z,11.68
2023-03-25T00:33:14.452Z,11.64
2023-03-25T00:38:16.482Z,11.61
2023-03-25T00:43:18.696Z,11.59
2023-03-25T00:48:20.546Z,11.59
2023-03-25T00:53:22.481Z,11.57
2023-03-25T00:58:24.306Z,11.56
2023-03-25T01:03:29.248Z,11.55
2023-03-25T01:08:32.151Z,11.53
2023-03-25T01:13:34.464Z,11.48
2023-03-25T01:18:38.122Z,11.45
2023-03-25T01:23:39.996Z,11.43
2023-03-25T01:28:44.294Z,11.40
2023-03-25T01:33:46.261Z,11.38
2023-03-25T01:38:48.415Z,11.36
2023-03-25T01:44:29.844Z,11.37
2023-03-25T01:49:38.939Z,11.37
2023-03-25T01:54:42.169Z,11.40
2023-03-25T01:59:44.272Z,11.43
2023-03-25T02:05:07.991Z,11.45
2023-03-25T02:10:12.090Z,11.44
2023-03-25T02:15:18.126Z,11.46
2023-03-25T02:20:57.672Z,11.47
2023-03-25T02:26:36.691Z,11.49
2023-03-25T02:32:20.509Z,11.48
2023-03-25T02:37:47.061Z,11.49
2023-03-25T02:43:02.418Z,11.50
2023-03-25T02:48:11.196Z,11.49
2023-03-25T02:53:19.571Z,11.50
2023-03-25T02:58:22.729Z,11.46
2023-03-25T03:03:27.410Z,11.40
2023-03-25T03:08:49.256Z,11.36
2023-03-25T03:13:57.819Z,11.31
2023-03-25T03:19:24.422Z,11.26
2023-03-25T03:24:38.418Z,11.21
2023-03-25T03:29:46.926Z,11.19
2023-03-25T03:34:53.128Z,11.16
2023-03-25T03:39:58.061Z,11.16
2023-03-25T03:45:13.986Z,11.13
2023-03-25T03:50:23.722Z,11.13
2023-03-25T03:55:39.401Z,11.17
2023-03-25T04:01:03.281Z,11.19
2023-03-25T04:06:21.762Z,11.20
2023-03-25T04:11:28.214Z,11.17
2023-03-25T04:16:34.701Z,11.15
2023-03-25T04:21:37.813Z,11.13
2023-03-25T04:26:39.669Z,11.12
2023-03-25T04:31:50.549Z,11.11
2023-03-25T04:36:52.747Z,11.09
2023-03-25T04:41:54.703Z,11.07
2023-03-25T04:46:56.592Z,11.06
2023-03-25T04:51:59.366Z,11.03
2023-03-25T04:57:01.661Z,11.03
2023-03-25T05:02:07.903Z,11.03
2023-03-25T05:07:09.958Z,11.03
2023-03-25T05:12:12.160Z,10.99
2023-03-25T05:17:14.206Z,10.97
2023-03-25T05:22:16.024Z,10.93
2023-03-25T05:27:20.362Z,10.91
2023-03-25T05:32:22.926Z,10.93
2023-03-25T05:37:24.684Z,10.90
2023-03-25T05:42:27.748Z,10.87
2023-03-25T05:47:29.579Z,10.86
2023-03-25T05:52:31.523Z,10.78
2023-03-25T05:57:33.605Z,10.70
2023-03-25T06:02:39.106Z,10.70
2023-03-25T06:07:49.992Z,10.70
2023-03-25T06:12:54.446Z,10.67
2023-03-25T06:17:57.421Z,10.61
2023-03-25T06:22:59.462Z,10.58
2023-03-25T06:28:03.812Z,10.52
2023-03-25T06:33:06.247Z,10.48
2023-03-25T06:38:11.478Z,10.44
2023-03-25T06:43:34.520Z,10.45
2023-03-25T06:48:51.938Z,10.53
2023-03-25T06:53:53.744Z,10.61
2023-03-25T06:58:55.660Z,10.68
2023-03-25T07:03:57.491Z,10.77
2023-03-25T07:08:59.322Z,10.79
2023-03-25T07:14:01.248Z,10.86
2023-03-25T07:19:03.366Z,10.92
2023-03-25T07:24:06.020Z,11.03
2023-03-25T07:29:08.053Z,11.14
2023-03-25T07:34:10.550Z,11.23
2023-03-25T07:39:12.740Z,11.38
2023-03-25T07:44:18.141Z,11.45
2023-03-25T07:49:20.338Z,11.44
2023-03-25T07:54:24.512Z,11.38
2023-03-25T07:59:29.242Z,11.28
2023-03-25T08:04:32.980Z,11.22
2023-03-25T08:09:35.423Z,11.24
2023-03-25T08:14:37.266Z,11.28
2023-03-25T08:19:39.162Z,11.34
2023-03-25T08:24:41.658Z,11.38
2023-03-25T08:29:44.679Z,11.36
2023-03-25T08:34:47.015Z,11.20
2023-03-25T08:39:50.655Z,10.96
2023-03-25T08:44:52.826Z,10.75
2023-03-25T08:49:54.915Z,10.61
2023-03-25T08:54:56.748Z,10.55
2023-03-25T08:59:58.719Z,10.54
2023-03-25T09:05:00.855Z,10.50
2023-03-25T09:10:04.186Z,10.51
2023-03-25T09:15:06.682Z,10.52
2023-03-25T09:20:10.733Z,10.57
2023-03-25T09:25:14.222Z,10.52
2023-03-25T09:30:16.389Z,10.41
2023-03-25T09:35:18.617Z,10.38
2023-03-25T09:40:21.962Z,10.37
2023-03-25T09:45:32.984Z,10.38
2023-03-25T09:50:37.043Z,10.44
2023-03-25T09:55:42.830Z,10.62
2023-03-25T10:00:47.128Z,10.77
2023-03-25T10:06:03.840Z,10.89
2023-03-25T10:11:16.015Z,11.02
2023-03-25T10:16:33.654Z,11.10
2023-03-25T10:21:58.186Z,11.29
2023-03-25T10:27:05.610Z,11.51
2023-03-25T10:32:17.220Z,11.63
2023-03-25T10:37:44.736Z,11.87
2023-03-25T10:43:25.569Z,12.12
2023-03-25T10:48:29.619Z,12.31
2023-03-25T10:53:31.433Z,12.19
2023-03-25T10:58:37.361Z,12.10
2023-03-25T11:03:42.037Z,12.09
2023-03-25T11:09:09.155Z,12.31
2023-03-25T11:14:12.366Z,12.42
2023-03-25T11:19:31.741Z,12.40
2023-03-25T11:24:40.423Z,12.46
2023-03-25T11:29:42.352Z,12.55
2023-03-25T11:34:48.329Z,12.58
2023-03-25T11:39:55.663Z,12.51
2023-03-25T11:44:59.744Z,12.42
2023-03-25T11:50:02.072Z,12.28
2023-03-25T11:55:04.846Z,12.31
2023-03-25T12:00:36.664Z,12.41
2023-03-25T12:05:39.490Z,12.28
2023-03-25T12:10:51.033Z,12.25
2023-03-25T12:15:53.800Z,12.43
2023-03-25T12:21:27.334Z,12.59
2023-03-25T12:26:50.865Z,12.72
2023-03-25T12:32:20.263Z,12.78
2023-03-25T12:37:44.557Z,12.87
2023-03-25T12:42:57.328Z,12.96
2023-03-25T12:48:25.575Z,13.01
2023-03-25T12:53:42.193Z,12.84
2023-03-25T12:59:07.426Z,12.21
2023-03-25T13:04:12.258Z,12.01
2023-03-25T13:09:24.436Z,11.91
2023-03-25T13:15:00.986Z,11.84
2023-03-25T13:20:09.751Z,11.99
2023-03-25T13:25:43.005Z,12.20
2023-03-25T13:30:48.266Z,12.33
2023-03-25T13:35:58.516Z,12.41
2023-03-25T13:41:19.501Z,12.48
2023-03-25T13:46:36.533Z,12.56
2023-03-25T13:51:39.250Z,12.62
2023-03-25T13:57:16.294Z,12.63
2023-03-25T14:02:46.988Z,12.72
2023-03-25T14:08:13.465Z,12.75
2023-03-25T14:13:22.278Z,12.75
2023-03-25T14:18:24.293Z,12.74
2023-03-25T14:23:32.225Z,12.75
2023-03-25T14:28:38.997Z,12.93
2023-03-25T14:34:02.752Z,12.93
2023-03-25T14:39:10.736Z,12.81
2023-03-25T14:44:19.707Z,12.61
2023-03-25T14:49:23.563Z,11.78
2023-03-25T14:54:30.480Z,11.23
2023-03-25T14:59:43.519Z,10.95
2023-03-25T15:04:46.721Z,10.75
2023-03-25T15:09:54.257Z,10.68
2023-03-25T15:15:08.572Z,10.73
2023-03-25T15:20:11.795Z,11.00
2023-03-25T15:25:19.743Z,11.23
2023-03-25T15:30:31.836Z,11.43
2023-03-25T15:35:45.229Z,11.56
2023-03-25T15:40:56.127Z,11.71
2023-03-25T15:46:28.217Z,11.80
2023-03-25T15:51:37.897Z,11.73
2023-03-25T15:56:45.958Z,11.67
2023-03-25T16:01:51.692Z,11.58
2023-03-25T16:06:57.403Z,11.45
2023-03-25T16:12:00.910Z,11.37
2023-03-25T16:17:07.398Z,11.30
2023-03-25T16:22:17.475Z,11.26
2023-03-25T16:27:30.826Z,11.24
2023-03-25T16:32:35.959Z,11.21
2023-03-25T16:37:40.058Z,11.18
2023-03-25T16:42:42.279Z,11.14
2023-03-25T16:47:46.354Z,11.06
2023-03-25T16:52:51.445Z,10.98
2023-03-25T16:57:53.560Z,10.91
2023-03-25T17:02:57.136Z,10.84
2023-03-25T17:08:10.590Z,10.76
2023-03-25T17:13:19.657Z,10.68
2023-03-25T17:18:27.785Z,10.63
2023-03-25T17:23:44.131Z,10.58
2023-03-25T17:28:58.185Z,10.53
2023-03-25T17:34:30.510Z,10.49
2023-03-25T17:39:34.034Z,10.46
2023-03-25T17:44:39.665Z,10.42
2023-03-25T17:49:41.689Z,10.38
2023-03-25T17:54:43.745Z,10.35
2023-03-25T17:59:46.817Z,10.33
2023-03-25T18:04:48.773Z,10.31
2023-03-25T18:09:50.725Z,10.31
2023-03-25T18:14:52.687Z,10.28
2023-03-25T18:19:54.458Z,10.26
2023-03-25T18:24:58.988Z,10.23
2023-03-25T18:30:01.247Z,10.20
2023-03-25T18:35:04.041Z,10.20
2023-03-25T18:40:25.256Z,10.21
2023-03-25T18:45:27.563Z,10.20
2023-03-25T18:50:35.427Z,10.19
2023-03-25T18:55:37.469Z,10.20
2023-03-25T19:00:40.445Z,10.22
2023-03-25T19:05:43.250Z,10.24
2023-03-25T19:10:45.709Z,10.26
2023-03-25T19:15:47.541Z,10.24
2023-03-25T19:20:50.682Z,10.23
2023-03-25T19:25:53.706Z,10.21
2023-03-25T19:31:00.579Z,10.20
2023-03-25T19:36:03.971Z,10.20
2023-03-25T19:41:11.566Z,10.25
2023-03-25T19:46:13.458Z,10.26
2023-03-25T19:51:15.399Z,10.28
2023-03-25T19:56:17.324Z,10.31
2023-03-25T20:01:19.118Z,10.33
2023-03-25T20:06:21.634Z,10.29
2023-03-25T20:11:23.400Z,10.15
2023-03-25T20:16:25.799Z,10.05
2023-03-25T20:21:27.983Z,9.94
2023-03-25T20:26:30.126Z,9.87
2023-03-25T20:31:34.403Z,9.81
2023-03-25T20:36:36.391Z,9.77
2023-03-25T20:41:38.210Z,9.75
2023-03-25T20:46:41.241Z,9.74
2023-03-25T20:51:43.544Z,9.70
2023-03-25T20:56:46.574Z,9.62
2023-03-25T21:01:53.614Z,9.56
2023-03-25T21:06:55.844Z,9.50
2023-03-25T21:11:57.699Z,9.47
2023-03-25T21:16:59.566Z,9.44
2023-03-25T21:22:01.853Z,9.45
2023-03-25T21:27:06.934Z,9.45
2023-03-25T21:32:14.118Z,9.47
2023-03-25T21:37:16.147Z,9.49
2023-03-25T21:42:18.088Z,9.54
2023-03-25T21:47:19.882Z,9.59
2023-03-25T21:52:22.346Z,9.64
2023-03-25T21:57:24.269Z,9.64
2023-03-25T22:02:29.006Z,9.63
2023-03-25T22:07:31.097Z,9.63
2023-03-25T22:12:33.141Z,9.65
2023-03-25T22:17:35.233Z,9.68
2023-03-25T22:22:37.161Z,9.70
2023-03-25T22:27:39.004Z,9.71
2023-03-25T22:32:44.106Z,9.71
2023-03-25T22:37:46.446Z,9.71
2023-03-25T22:42:48.382Z,9.72
2023-03-25T22:47:50.505Z,9.72
2023-03-25T22:52:52.480Z,9.70
2023-03-25T22:57:54.302Z,9.67
2023-03-25T23:02:57.336Z,9.65
2023-03-25T23:07:59.385Z,9.64
2023-03-25T23:13:01.459Z,9.61
2023-03-25T23:18:04.076Z,9.59
2023-03-25T23:23:06.399Z,9.57
2023-03-25T23:28:10.192Z,9.55
2023-03-25T23:33:12.019Z,9.52
2023-03-25T23:38:14.409Z,9.49
2023-03-25T23:43:16.466Z,9.44
2023-03-25T23:48:18.290Z,9.40
2023-03-25T23:53:21.598Z,9.36
2023-03-25T23:58:25.539Z,9.33
